sensor_id;sensor_type;location;lat;lon;timestamp;pressure;altitude;pressure_sealevel;temperature;humidity
56671;BME280;42545;50.054;8.306;2023-02-19T00:02:07;100345.59;;;8.63;99.40
56671;BME280;42545;50.054;8.306;2023-02-19T00:04:33;100353.44;;;8.61;99.61
56671;BME280;42545;50.054;8.306;2023-02-19T00:07:01;100349.94;;;8.61;99.62
56671;BME280;42545;50.054;8.306;2023-02-19T00:09:28;100342.03;;;8.61;99.60
56671;BME280;42545;50.054;8.306;2023-02-19T00:11:55;100335.91;;;8.60;99.69
56671;BME280;42545;50.054;8.306;2023-02-19T00:14:24;100333.16;;;8.57;99.80
56671;BME280;42545;50.054;8.306;2023-02-19T00:16:50;100321.78;;;8.57;99.75
56671;BME280;42545;50.054;8.306;2023-02-19T00:19:19;100325.31;;;8.59;99.88
56671;BME280;42545;50.054;8.306;2023-02-19T00:21:46;100339.31;;;8.58;99.93
56671;BME280;42545;50.054;8.306;2023-02-19T00:24:13;100341.09;;;8.59;100.00
56671;BME280;42545;50.054;8.306;2023-02-19T00:26:41;100345.50;;;8.58;99.93
56671;BME280;42545;50.054;8.306;2023-02-19T00:29:08;100347.19;;;8.58;100.00
56671;BME280;42545;50.054;8.306;2023-02-19T00:31:39;100343.69;;;8.57;100.00
56671;BME280;42545;50.054;8.306;2023-02-19T00:34:06;100336.69;;;8.58;100.00
56671;BME280;42545;50.054;8.306;2023-02-19T00:36:36;100346.31;;;8.57;100.00
56671;BME280;42545;50.054;8.306;2023-02-19T00:39:04;100352.47;;;8.58;100.00
56671;BME280;42545;50.054;8.306;2023-02-19T00:41:31;100357.88;;;8.62;100.00
56671;BME280;42545;50.054;8.306;2023-02-19T00:44:00;100351.84;;;8.66;100.00
56671;BME280;42545;50.054;8.306;2023-02-19T00:46:29;100334.38;;;8.69;99.58
56671;BME280;42545;50.054;8.306;2023-02-19T00:48:58;100315.94;;;8.67;99.43
56671;BME280;42545;50.054;8.306;2023-02-19T00:51:28;100328.38;;;8.74;99.22
56671;BME280;42545;50.054;8.306;2023-02-19T00:53:55;100326.72;;;8.76;98.97
56671;BME280;42545;50.054;8.306;2023-02-19T00:56:22;100328.47;;;8.77;98.82
56671;BME280;42545;50.054;8.306;2023-02-19T00:58:49;100336.56;;;8.83;98.53
56671;BME280;42545;50.054;8.306;2023-02-19T01:01:17;100335.75;;;8.86;98.27
56671;BME280;42545;50.054;8.306;2023-02-19T01:03:45;100327.94;;;8.89;97.96
56671;BME280;42545;50.054;8.306;2023-02-19T01:06:15;100315.72;;;8.91;97.79
56671;BME280;42545;50.054;8.306;2023-02-19T01:08:43;100324.50;;;8.92;97.50
56671;BME280;42545;50.054;8.306;2023-02-19T01:11:11;100320.09;;;8.92;97.68
56671;BME280;42545;50.054;8.306;2023-02-19T01:13:38;100329.75;;;8.92;97.58
56671;BME280;42545;50.054;8.306;2023-02-19T01:16:07;100330.69;;;8.94;97.45
56671;BME280;42545;50.054;8.306;2023-02-19T01:18:34;100314.00;;;8.93;97.52
56671;BME280;42545;50.054;8.306;2023-02-19T01:21:04;100313.13;;;8.93;97.41
56671;BME280;42545;50.054;8.306;2023-02-19T01:23:33;100318.41;;;8.94;97.24
56671;BME280;42545;50.054;8.306;2023-02-19T01:26:03;100326.28;;;8.93;97.54
56671;BME280;42545;50.054;8.306;2023-02-19T01:28:30;100324.53;;;8.93;97.59
56671;BME280;42545;50.054;8.306;2023-02-19T01:31:00;100313.13;;;8.93;97.49
56671;BME280;42545;50.054;8.306;2023-02-19T01:33:27;100311.34;;;8.92;97.65
56671;BME280;42545;50.054;8.306;2023-02-19T01:35:54;100307.88;;;8.93;97.50
56671;BME280;42545;50.054;8.306;2023-02-19T01:38:21;100318.41;;;8.94;97.47
56671;BME280;42545;50.054;8.306;2023-02-19T01:40:54;100307.88;;;8.94;97.51
56671;BME280;42545;50.054;8.306;2023-02-19T01:43:22;100313.22;;;8.97;97.28
56671;BME280;42545;50.054;8.306;2023-02-19T01:45:48;100295.69;;;8.96;97.29
56671;BME280;42545;50.054;8.306;2023-02-19T01:48:18;100309.75;;;8.98;97.11
56671;BME280;42545;50.054;8.306;2023-02-19T01:50:48;100293.06;;;8.98;97.07
56671;BME280;42545;50.054;8.306;2023-02-19T01:53:22;100286.88;;;8.96;96.98
56671;BME280;42545;50.054;8.306;2023-02-19T01:55:55;100286.91;;;8.97;96.87
56671;BME280;42545;50.054;8.306;2023-02-19T01:58:26;100278.09;;;8.95;96.98
56671;BME280;42545;50.054;8.306;2023-02-19T02:00:54;100267.41;;;8.89;96.82
56671;BME280;42545;50.054;8.306;2023-02-19T02:03:22;100273.66;;;8.94;97.00
56671;BME280;42545;50.054;8.306;2023-02-19T02:05:53;100269.22;;;8.92;96.77
56671;BME280;42545;50.054;8.306;2023-02-19T02:08:22;100267.41;;;8.89;97.13
56671;BME280;42545;50.054;8.306;2023-02-19T02:11:09;100263.84;;;8.87;97.04
56671;BME280;42545;50.054;8.306;2023-02-19T02:13:36;100265.63;;;8.88;97.17
56671;BME280;42545;50.054;8.306;2023-02-19T02:16:13;100262.16;;;8.89;97.33
56671;BME280;42545;50.054;8.306;2023-02-19T02:18:52;100273.56;;;8.90;97.23
56671;BME280;42545;50.054;8.306;2023-02-19T02:21:32;100256.84;;;8.88;97.75
56671;BME280;42545;50.054;8.306;2023-02-19T02:24:11;100253.25;;;8.84;97.66
56671;BME280;42545;50.054;8.306;2023-02-19T02:27:11;100257.63;;;8.85;98.14
56671;BME280;42545;50.054;8.306;2023-02-19T02:30:04;100247.13;;;8.85;98.45
56671;BME280;42545;50.054;8.306;2023-02-19T02:32:38;100259.44;;;8.86;98.45
56671;BME280;42545;50.054;8.306;2023-02-19T02:35:19;100260.28;;;8.85;98.46
56671;BME280;42545;50.054;8.306;2023-02-19T02:37:48;100251.44;;;8.83;98.50
56671;BME280;42545;50.054;8.306;2023-02-19T02:40:17;100232.06;;;8.79;98.32
56671;BME280;42545;50.054;8.306;2023-02-19T02:42:45;100232.06;;;8.79;98.48
56671;BME280;42545;50.054;8.306;2023-02-19T02:45:24;100233.75;;;8.77;98.88
56671;BME280;42545;50.054;8.306;2023-02-19T02:48:12;100234.63;;;8.76;99.11
56671;BME280;42545;50.054;8.306;2023-02-19T02:50:42;100229.38;;;8.76;99.36
56671;BME280;42545;50.054;8.306;2023-02-19T02:53:17;100223.25;;;8.77;99.30
56671;BME280;42545;50.054;8.306;2023-02-19T02:56:01;100214.50;;;8.78;99.13
56671;BME280;42545;50.054;8.306;2023-02-19T02:58:30;100218.84;;;8.78;99.52
56671;BME280;42545;50.054;8.306;2023-02-19T03:01:04;100222.41;;;8.78;99.85
56671;BME280;42545;50.054;8.306;2023-02-19T03:03:53;100222.34;;;8.77;100.00
56671;BME280;42545;50.054;8.306;2023-02-19T03:06:27;100233.72;;;8.76;100.00
56671;BME280;42545;50.054;8.306;2023-02-19T03:08:57;100233.66;;;8.73;100.00
56671;BME280;42545;50.054;8.306;2023-02-19T03:11:24;100236.09;;;8.66;100.00
56671;BME280;42545;50.054;8.306;2023-02-19T03:14:15;100223.72;;;8.62;100.00
56671;BME280;42545;50.054;8.306;2023-02-19T03:17:07;100227.09;;;8.57;100.00
56671;BME280;42545;50.054;8.306;2023-02-19T03:19:55;100233.94;;;8.52;100.00
56671;BME280;42545;50.054;8.306;2023-02-19T03:22:25;100229.47;;;8.48;100.00
56671;BME280;42545;50.054;8.306;2023-02-19T03:24:55;100244.25;;;8.44;100.00
56671;BME280;42545;50.054;8.306;2023-02-19T03:27:42;100237.91;;;8.37;100.00
56671;BME280;42545;50.054;8.306;2023-02-19T03:30:16;100243.09;;;8.34;100.00
56671;BME280;42545;50.054;8.306;2023-02-19T03:32:48;100243.03;;;8.33;100.00
56671;BME280;42545;50.054;8.306;2023-02-19T03:35:19;100228.97;;;8.31;100.00
56671;BME280;42545;50.054;8.306;2023-02-19T03:37:52;100236.81;;;8.29;100.00
56671;BME280;42545;50.054;8.306;2023-02-19T03:40:25;100221.81;;;8.26;100.00
56671;BME280;42545;50.054;8.306;2023-02-19T03:42:58;100227.03;;;8.25;100.00
56671;BME280;42545;50.054;8.306;2023-02-19T03:45:38;100226.16;;;8.24;100.00
56671;BME280;42545;50.054;8.306;2023-02-19T03:48:21;100229.63;;;8.23;100.00
56671;BME280;42545;50.054;8.306;2023-02-19T03:50:56;100230.41;;;8.21;100.00
56671;BME280;42545;50.054;8.306;2023-02-19T03:53:29;100231.44;;;8.26;100.00
56671;BME280;42545;50.054;8.306;2023-02-19T03:56:05;100235.06;;;8.30;100.00
56671;BME280;42545;50.054;8.306;2023-02-19T03:58:39;100231.63;;;8.32;100.00
56671;BME280;42545;50.054;8.306;2023-02-19T04:01:09;100235.16;;;8.33;100.00
56671;BME280;42545;50.054;8.306;2023-02-19T04:03:42;100240.47;;;8.34;100.00
56671;BME280;42545;50.054;8.306;2023-02-19T04:06:13;100229.94;;;8.34;100.00
56671;BME280;42545;50.054;8.306;2023-02-19T04:08:46;100219.44;;;8.36;100.00
56671;BME280;42545;50.054;8.306;2023-02-19T04:11:15;100229.13;;;8.37;100.00
56671;BME280;42545;50.054;8.306;2023-02-19T04:13:45;100223.06;;;8.39;100.00
56671;BME280;42545;50.054;8.306;2023-02-19T04:16:18;100220.41;;;8.39;100.00
56671;BME280;42545;50.054;8.306;2023-02-19T04:18:50;100208.09;;;8.37;100.00
56671;BME280;42545;50.054;8.306;2023-02-19T04:21:19;100219.53;;;8.39;100.00
56671;BME280;42545;50.054;8.306;2023-02-19T04:23:48;100210.81;;;8.40;100.00
56671;BME280;42545;50.054;8.306;2023-02-19T04:26:16;100216.09;;;8.41;100.00
56671;BME280;42545;50.054;8.306;2023-02-19T04:28:45;100209.16;;;8.42;100.00
56671;BME280;42545;50.054;8.306;2023-02-19T04:31:13;100223.97;;;8.41;100.00
56671;BME280;42545;50.054;8.306;2023-02-19T04:33:40;100221.34;;;8.41;100.00
56671;BME280;42545;50.054;8.306;2023-02-19T04:36:10;100218.66;;;8.38;100.00
56671;BME280;42545;50.054;8.306;2023-02-19T04:38:37;100211.56;;;8.36;100.00
56671;BME280;42545;50.054;8.306;2023-02-19T04:41:04;100220.25;;;8.33;100.00
56671;BME280;42545;50.054;8.306;2023-02-19T04:43:30;100231.59;;;8.31;100.00
56671;BME280;42545;50.054;8.306;2023-02-19T04:46:01;100235.91;;;8.28;100.00
56671;BME280;42545;50.054;8.306;2023-02-19T04:48:28;100243.72;;;8.25;100.00
56671;BME280;42545;50.054;8.306;2023-02-19T04:50:54;100244.53;;;8.24;100.00
56671;BME280;42545;50.054;8.306;2023-02-19T04:53:23;100254.22;;;8.25;100.00
56671;BME280;42545;50.054;8.306;2023-02-19T04:55:50;100263.94;;;8.28;100.00
56671;BME280;42545;50.054;8.306;2023-02-19T04:58:19;100260.47;;;8.29;100.00
56671;BME280;42545;50.054;8.306;2023-02-19T05:00:50;100270.97;;;8.29;100.00
56671;BME280;42545;50.054;8.306;2023-02-19T05:03:17;100273.63;;;8.29;100.00
56671;BME280;42545;50.054;8.306;2023-02-19T05:05:44;100276.19;;;8.27;100.00
56671;BME280;42545;50.054;8.306;2023-02-19T05:08:11;100283.19;;;8.27;100.00
56671;BME280;42545;50.054;8.306;2023-02-19T05:10:39;100273.50;;;8.26;100.00
56671;BME280;42545;50.054;8.306;2023-02-19T05:13:06;100274.34;;;8.25;100.00
56671;BME280;42545;50.054;8.306;2023-02-19T05:15:32;100277.88;;;8.25;100.00
56671;BME280;42545;50.054;8.306;2023-02-19T05:17:59;100282.34;;;8.28;100.00
56671;BME280;42545;50.054;8.306;2023-02-19T05:20:26;100287.63;;;8.30;100.00
56671;BME280;42545;50.054;8.306;2023-02-19T05:22:52;100289.38;;;8.29;100.00
56671;BME280;42545;50.054;8.306;2023-02-19T05:25:19;100297.22;;;8.27;100.00
56671;BME280;42545;50.054;8.306;2023-02-19T05:27:48;100302.47;;;8.27;100.00
56671;BME280;42545;50.054;8.306;2023-02-19T05:30:34;100298.09;;;8.28;100.00
56671;BME280;42545;50.054;8.306;2023-02-19T05:33:01;100293.78;;;8.30;100.00
56671;BME280;42545;50.054;8.306;2023-02-19T05:35:28;100300.88;;;8.33;100.00
56671;BME280;42545;50.054;8.306;2023-02-19T05:37:54;100294.72;;;8.32;100.00
56671;BME280;42545;50.054;8.306;2023-02-19T05:40:21;100293.81;;;8.32;100.00
56671;BME280;42545;50.054;8.306;2023-02-19T05:42:49;100300.94;;;8.36;100.00
56671;BME280;42545;50.054;8.306;2023-02-19T05:45:16;100298.31;;;8.36;100.00
56671;BME280;42545;50.054;8.306;2023-02-19T05:47:42;100301.88;;;8.36;100.00
56671;BME280;42545;50.054;8.306;2023-02-19T05:50:09;100309.69;;;8.35;100.00
56671;BME280;42545;50.054;8.306;2023-02-19T05:52:36;100314.09;;;8.36;100.00
56671;BME280;42545;50.054;8.306;2023-02-19T05:55:03;100309.75;;;8.36;100.00
56671;BME280;42545;50.054;8.306;2023-02-19T05:57:30;100316.00;;;8.41;100.00
56671;BME280;42545;50.054;8.306;2023-02-19T05:59:58;100321.34;;;8.43;100.00
56671;BME280;42545;50.054;8.306;2023-02-19T06:02:25;100325.78;;;8.44;100.00
56671;BME280;42545;50.054;8.306;2023-02-19T06:04:52;100335.44;;;8.45;99.86
56671;BME280;42545;50.054;8.306;2023-02-19T06:07:19;100339.88;;;8.46;99.66
56671;BME280;42545;50.054;8.306;2023-02-19T06:09:49;100339.91;;;8.48;99.53
56671;BME280;42545;50.054;8.306;2023-02-19T06:12:15;100341.69;;;8.49;99.17
56671;BME280;42545;50.054;8.306;2023-02-19T06:14:42;100337.34;;;8.49;98.91
56671;BME280;42545;50.054;8.306;2023-02-19T06:17:12;100341.72;;;8.50;98.84
56671;BME280;42545;50.054;8.306;2023-02-19T06:19:39;100337.38;;;8.51;98.58
56671;BME280;42545;50.054;8.306;2023-02-19T06:22:06;100354.88;;;8.50;98.59
56671;BME280;42545;50.054;8.306;2023-02-19T06:24:35;100360.09;;;8.49;98.50
56671;BME280;42545;50.054;8.306;2023-02-19T06:27:04;100368.88;;;8.49;98.28
56671;BME280;42545;50.054;8.306;2023-02-19T06:29:31;100372.44;;;8.51;98.22
56671;BME280;42545;50.054;8.306;2023-02-19T06:31:57;100379.53;;;8.54;97.96
56671;BME280;42545;50.054;8.306;2023-02-19T06:34:25;100380.44;;;8.54;97.69
56671;BME280;42545;50.054;8.306;2023-02-19T06:36:52;100381.38;;;8.56;97.58
56671;BME280;42545;50.054;8.306;2023-02-19T06:39:19;100384.03;;;8.58;97.62
56671;BME280;42545;50.054;8.306;2023-02-19T06:41:46;100391.97;;;8.59;97.34
56671;BME280;42545;50.054;8.306;2023-02-19T06:44:13;100393.66;;;8.57;97.03
56671;BME280;42545;50.054;8.306;2023-02-19T06:46:39;100397.28;;;8.61;97.34
56671;BME280;42545;50.054;8.306;2023-02-19T06:49:06;100382.16;;;8.54;96.84
56671;BME280;42545;50.054;8.306;2023-02-19T06:51:34;100405.28;;;8.64;96.83
56671;BME280;42545;50.054;8.306;2023-02-19T06:54:01;100414.03;;;8.64;96.43
56671;BME280;42545;50.054;8.306;2023-02-19T06:56:31;100414.00;;;8.63;96.53
56671;BME280;42545;50.054;8.306;2023-02-19T06:58:59;100416.69;;;8.64;96.52
56671;BME280;42545;50.054;8.306;2023-02-19T07:01:27;100420.25;;;8.66;96.53
56671;BME280;42545;50.054;8.306;2023-02-19T07:03:54;100419.41;;;8.68;96.60
56671;BME280;42545;50.054;8.306;2023-02-19T07:06:22;100424.72;;;8.69;96.37
56671;BME280;42545;50.054;8.306;2023-02-19T07:08:51;100418.59;;;8.70;96.45
56671;BME280;42545;50.054;8.306;2023-02-19T07:11:19;100404.41;;;8.65;96.21
56671;BME280;42545;50.054;8.306;2023-02-19T07:13:53;100418.53;;;8.67;95.96
56671;BME280;42545;50.054;8.306;2023-02-19T07:16:20;100419.53;;;8.72;96.32
56671;BME280;42545;50.054;8.306;2023-02-19T07:18:47;100428.34;;;8.73;96.16
56671;BME280;42545;50.054;8.306;2023-02-19T07:21:14;100440.56;;;8.72;96.46
56671;BME280;42545;50.054;8.306;2023-02-19T07:23:42;100435.38;;;8.74;95.99
56671;BME280;42545;50.054;8.306;2023-02-19T07:26:12;100428.34;;;8.74;96.17
56671;BME280;42545;50.054;8.306;2023-02-19T07:28:39;100430.09;;;8.74;95.67
56671;BME280;42545;50.054;8.306;2023-02-19T07:31:07;100440.72;;;8.77;95.48
56671;BME280;42545;50.054;8.306;2023-02-19T07:33:33;100444.34;;;8.80;95.57
56671;BME280;42545;50.054;8.306;2023-02-19T07:36:00;100440.94;;;8.84;95.13
56671;BME280;42545;50.054;8.306;2023-02-19T07:38:27;100441.97;;;8.90;95.03
56671;BME280;42545;50.054;8.306;2023-02-19T07:40:55;100434.03;;;8.88;95.00
56671;BME280;42545;50.054;8.306;2023-02-19T07:43:24;100450.16;;;8.99;94.95
56671;BME280;42545;50.054;8.306;2023-02-19T07:45:51;100448.50;;;9.02;94.81
56671;BME280;42545;50.054;8.306;2023-02-19T07:48:18;100456.38;;;9.02;94.63
56671;BME280;42545;50.054;8.306;2023-02-19T07:50:50;100458.13;;;9.02;94.49
56671;BME280;42545;50.054;8.306;2023-02-19T07:53:17;100460.72;;;9.00;94.12
56671;BME280;42545;50.054;8.306;2023-02-19T07:55:44;100467.84;;;9.04;93.86
56671;BME280;42545;50.054;8.306;2023-02-19T07:58:10;100476.63;;;9.03;93.17
56671;BME280;42545;50.054;8.306;2023-02-19T08:00:39;100472.19;;;9.02;93.47
56671;BME280;42545;50.054;8.306;2023-02-19T08:03:06;100479.19;;;9.02;94.30
56671;BME280;42545;50.054;8.306;2023-02-19T08:05:33;100479.00;;;8.96;94.69
56671;BME280;42545;50.054;8.306;2023-02-19T08:08:02;100486.00;;;8.95;95.27
56671;BME280;42545;50.054;8.306;2023-02-19T08:10:30;100488.47;;;8.89;95.91
56671;BME280;42545;50.054;8.306;2023-02-19T08:13:16;100499.81;;;8.88;96.46
56671;BME280;42545;50.054;8.306;2023-02-19T08:15:49;100500.69;;;8.87;96.57
56671;BME280;42545;50.054;8.306;2023-02-19T08:18:17;100507.63;;;8.85;97.29
56671;BME280;42545;50.054;8.306;2023-02-19T08:20:44;100513.69;;;8.82;97.57
56671;BME280;42545;50.054;8.306;2023-02-19T08:23:11;100523.22;;;8.79;97.96
56671;BME280;42545;50.054;8.306;2023-02-19T08:25:39;100528.34;;;8.74;98.82
56671;BME280;42545;50.054;8.306;2023-02-19T08:28:10;100525.63;;;8.71;99.60
56671;BME280;42545;50.054;8.306;2023-02-19T08:30:39;100547.66;;;8.75;100.00
56671;BME280;42545;50.054;8.306;2023-02-19T08:33:11;100547.66;;;8.75;100.00
56671;BME280;42545;50.054;8.306;2023-02-19T08:35:38;100552.06;;;8.76;100.00
56671;BME280;42545;50.054;8.306;2023-02-19T08:38:06;100555.50;;;8.73;100.00
56671;BME280;42545;50.054;8.306;2023-02-19T08:40:33;100558.09;;;8.72;100.00
56671;BME280;42545;50.054;8.306;2023-02-19T08:43:02;100560.00;;;8.77;99.88
56671;BME280;42545;50.054;8.306;2023-02-19T08:45:29;100564.44;;;8.78;99.76
56671;BME280;42545;50.054;8.306;2023-02-19T08:47:56;100575.09;;;8.83;99.67
56671;BME280;42545;50.054;8.306;2023-02-19T08:50:25;100576.03;;;8.85;99.10
56671;BME280;42545;50.054;8.306;2023-02-19T08:52:52;100578.88;;;8.91;98.97
56671;BME280;42545;50.054;8.306;2023-02-19T08:55:19;100573.69;;;8.94;98.52
56671;BME280;42545;50.054;8.306;2023-02-19T08:57:46;100570.34;;;8.98;97.72
56671;BME280;42545;50.054;8.306;2023-02-19T09:00:14;100570.47;;;9.03;97.61
56671;BME280;42545;50.054;8.306;2023-02-19T09:02:41;100571.56;;;9.10;97.32
56671;BME280;42545;50.054;8.306;2023-02-19T09:05:09;100570.84;;;9.15;97.20
56671;BME280;42545;50.054;8.306;2023-02-19T09:07:38;100572.66;;;9.18;96.54
56671;BME280;42545;50.054;8.306;2023-02-19T09:10:06;100572.88;;;9.24;96.28
56671;BME280;42545;50.054;8.306;2023-02-19T09:12:33;100579.13;;;9.28;95.85
56671;BME280;42545;50.054;8.306;2023-02-19T09:15:00;100582.63;;;9.28;94.69
56671;BME280;42545;50.054;8.306;2023-02-19T09:17:26;100589.53;;;9.24;94.02
56671;BME280;42545;50.054;8.306;2023-02-19T09:19:54;100586.88;;;9.23;93.26
56671;BME280;42545;50.054;8.306;2023-02-19T09:22:20;100601.13;;;9.30;93.85
56671;BME280;42545;50.054;8.306;2023-02-19T09:24:48;100596.75;;;9.30;95.08
56671;BME280;42545;50.054;8.306;2023-02-19T09:27:17;100602.06;;;9.32;95.16
56671;BME280;42545;50.054;8.306;2023-02-19T09:29:44;100596.88;;;9.35;95.25
56671;BME280;42545;50.054;8.306;2023-02-19T09:32:11;100593.53;;;9.40;95.58
56671;BME280;42545;50.054;8.306;2023-02-19T09:34:38;100601.16;;;9.61;95.46
56671;BME280;42545;50.054;8.306;2023-02-19T09:37:05;100591.34;;;9.56;93.43
56671;BME280;42545;50.054;8.306;2023-02-19T09:39:32;100596.56;;;9.54;93.58
56671;BME280;42545;50.054;8.306;2023-02-19T09:42:03;100595.56;;;9.49;93.53
56671;BME280;42545;50.054;8.306;2023-02-19T09:44:38;100601.50;;;9.43;92.46
56671;BME280;42545;50.054;8.306;2023-02-19T09:47:08;100598.88;;;9.42;92.40
56671;BME280;42545;50.054;8.306;2023-02-19T09:49:40;100604.91;;;9.39;92.40
56671;BME280;42545;50.054;8.306;2023-02-19T09:52:18;100603.09;;;9.37;92.16
56671;BME280;42545;50.054;8.306;2023-02-19T09:54:48;100596.88;;;9.35;90.72
56671;BME280;42545;50.054;8.306;2023-02-19T09:57:20;100589.78;;;9.32;91.64
56671;BME280;42545;50.054;8.306;2023-02-19T09:59:48;100611.88;;;9.37;91.03
56671;BME280;42545;50.054;8.306;2023-02-19T10:02:17;100608.53;;;9.43;91.49
56671;BME280;42545;50.054;8.306;2023-02-19T10:04:46;100614.78;;;9.47;90.83
56671;BME280;42545;50.054;8.306;2023-02-19T10:07:14;100615.91;;;9.55;91.53
56671;BME280;42545;50.054;8.306;2023-02-19T10:09:44;100605.59;;;9.62;90.22
56671;BME280;42545;50.054;8.306;2023-02-19T10:12:14;100617.25;;;9.71;90.60
56671;BME280;42545;50.054;8.306;2023-02-19T10:14:45;100619.13;;;9.75;90.63
56671;BME280;42545;50.054;8.306;2023-02-19T10:17:20;100630.56;;;9.75;91.03
56671;BME280;42545;50.054;8.306;2023-02-19T10:19:48;100622.59;;;9.74;90.93
56671;BME280;42545;50.054;8.306;2023-02-19T10:22:15;100639.09;;;9.67;91.08
56671;BME280;42545;50.054;8.306;2023-02-19T10:24:42;100645.84;;;9.57;90.56
56671;BME280;42545;50.054;8.306;2023-02-19T10:27:12;100650.06;;;9.52;91.45
56671;BME280;42545;50.054;8.306;2023-02-19T10:29:39;100655.28;;;9.50;91.64
56671;BME280;42545;50.054;8.306;2023-02-19T10:32:16;100657.09;;;9.51;92.00
56671;BME280;42545;50.054;8.306;2023-02-19T10:34:45;100658.97;;;9.55;92.14
56671;BME280;42545;50.054;8.306;2023-02-19T10:37:14;100656.44;;;9.60;93.26
56671;BME280;42545;50.054;8.306;2023-02-19T10:39:44;100662.75;;;9.65;93.40
56671;BME280;42545;50.054;8.306;2023-02-19T10:42:18;100676.28;;;9.77;94.64
56671;BME280;42545;50.054;8.306;2023-02-19T10:44:50;100679.34;;;9.91;95.62
56671;BME280;42545;50.054;8.306;2023-02-19T10:47:23;100673.13;;;9.89;93.00
56671;BME280;42545;50.054;8.306;2023-02-19T10:49:52;100678.59;;;9.95;92.28
56671;BME280;42545;50.054;8.306;2023-02-19T10:52:22;100675.06;;;9.96;89.06
56671;BME280;42545;50.054;8.306;2023-02-19T10:54:51;100666.59;;;10.37;88.86
56671;BME280;42545;50.054;8.306;2023-02-19T10:57:24;100674.81;;;10.49;85.98
56671;BME280;42545;50.054;8.306;2023-02-19T10:59:56;100680.78;;;10.42;84.95
56671;BME280;42545;50.054;8.306;2023-02-19T11:02:25;100683.41;;;10.42;85.75
56671;BME280;42545;50.054;8.306;2023-02-19T11:05:08;100679.13;;;10.46;85.25
56671;BME280;42545;50.054;8.306;2023-02-19T11:07:43;100683.50;;;10.45;85.26
56671;BME280;42545;50.054;8.306;2023-02-19T11:10:18;100699.19;;;10.39;82.06
56671;BME280;42545;50.054;8.306;2023-02-19T11:12:47;100699.47;;;10.50;84.08
56671;BME280;42545;50.054;8.306;2023-02-19T11:15:20;100693.16;;;10.78;84.13
56671;BME280;42545;50.054;8.306;2023-02-19T11:17:56;100700.72;;;10.98;84.03
56671;BME280;42545;50.054;8.306;2023-02-19T11:20:24;100682.91;;;10.90;79.72
56671;BME280;42545;50.054;8.306;2023-02-19T11:22:57;100702.38;;;10.94;80.53
56671;BME280;42545;50.054;8.306;2023-02-19T11:25:27;100697.00;;;10.91;80.27
56671;BME280;42545;50.054;8.306;2023-02-19T11:27:56;100703.81;;;10.81;79.72
56671;BME280;42545;50.054;8.306;2023-02-19T11:30:34;100703.72;;;10.78;80.30
56671;BME280;42545;50.054;8.306;2023-02-19T11:33:24;100704.50;;;10.74;79.95
56671;BME280;42545;50.054;8.306;2023-02-19T11:35:53;100704.31;;;10.66;79.42
56671;BME280;42545;50.054;8.306;2023-02-19T11:38:23;100695.22;;;10.56;79.58
56671;BME280;42545;50.054;8.306;2023-02-19T11:40:56;100693.22;;;10.46;79.18
56671;BME280;42545;50.054;8.306;2023-02-19T11:43:38;100707.16;;;10.42;79.39
56671;BME280;42545;50.054;8.306;2023-02-19T11:46:16;100709.63;;;10.36;79.74
56671;BME280;42545;50.054;8.306;2023-02-19T11:48:55;100716.44;;;10.29;79.06
56671;BME280;42545;50.054;8.306;2023-02-19T11:51:37;100722.59;;;10.28;79.87
56671;BME280;42545;50.054;8.306;2023-02-19T11:54:15;100729.00;;;10.36;81.08
56671;BME280;42545;50.054;8.306;2023-02-19T11:56:48;100709.84;;;10.44;80.40
56671;BME280;42545;50.054;8.306;2023-02-19T11:59:26;100710.22;;;10.57;80.21
56671;BME280;42545;50.054;8.306;2023-02-19T12:02:17;100712.19;;;10.65;77.85
56671;BME280;42545;50.054;8.306;2023-02-19T12:05:06;100726.16;;;10.61;77.51
56671;BME280;42545;50.054;8.306;2023-02-19T12:07:56;100715.59;;;10.62;78.52
56671;BME280;42545;50.054;8.306;2023-02-19T12:10:32;100719.38;;;10.70;78.86
56671;BME280;42545;50.054;8.306;2023-02-19T12:13:09;100711.03;;;10.88;78.09
56671;BME280;42545;50.054;8.306;2023-02-19T12:15:50;100719.78;;;10.87;75.35
56671;BME280;42545;50.054;8.306;2023-02-19T12:18:37;100703.16;;;10.90;76.41
56671;BME280;42545;50.054;8.306;2023-02-19T12:21:22;100706.88;;;10.98;77.46
56671;BME280;42545;50.054;8.306;2023-02-19T12:24:12;100713.34;;;11.11;77.32
56671;BME280;42545;50.054;8.306;2023-02-19T12:26:49;100709.00;;;11.13;78.26
56671;BME280;42545;50.054;8.306;2023-02-19T12:29:33;100710.66;;;11.09;76.13
56671;BME280;42545;50.054;8.306;2023-02-19T12:32:15;100707.00;;;11.03;76.32
56671;BME280;42545;50.054;8.306;2023-02-19T12:35:18;100713.03;;;10.97;77.14
56671;BME280;42545;50.054;8.306;2023-02-19T12:38:00;100712.91;;;10.92;77.56
56671;BME280;42545;50.054;8.306;2023-02-19T12:40:37;100712.69;;;10.85;78.22
56671;BME280;42545;50.054;8.306;2023-02-19T12:43:12;100717.19;;;10.89;79.73
56671;BME280;42545;50.054;8.306;2023-02-19T12:45:48;100698.63;;;10.86;79.31
56671;BME280;42545;50.054;8.306;2023-02-19T12:48:25;100707.25;;;10.78;78.90
56671;BME280;42545;50.054;8.306;2023-02-19T12:50:56;100697.47;;;10.74;79.38
56671;BME280;42545;50.054;8.306;2023-02-19T12:53:33;100706.25;;;10.73;79.92
56671;BME280;42545;50.054;8.306;2023-02-19T12:56:07;100704.47;;;10.72;80.11
56671;BME280;42545;50.054;8.306;2023-02-19T12:58:38;100695.47;;;10.66;78.39
56671;BME280;42545;50.054;8.306;2023-02-19T13:01:09;100700.69;;;10.63;78.42
56671;BME280;42545;50.054;8.306;2023-02-19T13:03:47;100695.22;;;10.56;79.81
56671;BME280;42545;50.054;8.306;2023-02-19T13:06:25;100694.94;;;10.46;81.00
56671;BME280;42545;50.054;8.306;2023-02-19T13:09:02;100690.34;;;10.38;79.85
56671;BME280;42545;50.054;8.306;2023-02-19T13:11:34;100696.59;;;10.42;81.81
56671;BME280;42545;50.054;8.306;2023-02-19T13:14:05;100688.16;;;10.54;80.31
56671;BME280;42545;50.054;8.306;2023-02-19T13:16:37;100693.41;;;10.54;78.22